sensor_id;sensor_type;location;lat;lon;timestamp;pressure;altitude;pressure_sealevel;temperature;humidity
47366;BME280;33105;47.964;7.982;2023-02-14T00:01:08;98448.28;;;1.01;84.83
47366;BME280;33105;47.964;7.982;2023-02-14T00:04:11;98444.63;;;1.10;84.00
47366;BME280;33105;47.964;7.982;2023-02-14T00:07:13;98449.84;;;1.12;83.77
47366;BME280;33105;47.964;7.982;2023-02-14T00:10:15;98441.50;;;1.23;83.33
47366;BME280;33105;47.964;7.982;2023-02-14T00:13:17;98452.44;;;1.21;82.95
47366;BME280;33105;47.964;7.982;2023-02-14T00:16:18;98449.28;;;1.34;83.80
47366;BME280;33105;47.964;7.982;2023-02-14T00:19:20;98442.34;;;1.23;83.58
47366;BME280;33105;47.964;7.982;2023-02-14T00:22:23;98444.84;;;1.17;83.36
47366;BME280;33105;47.964;7.982;2023-02-14T00:25:24;98445.69;;;1.17;83.92
47366;BME280;33105;47.964;7.982;2023-02-14T00:28:26;98439.47;;;1.17;82.92
47366;BME280;33105;47.964;7.982;2023-02-14T00:31:27;98440.94;;;1.11;82.91
47366;BME280;33105;47.964;7.982;2023-02-14T00:34:31;98434.66;;;1.02;83.93
47366;BME280;33105;47.964;7.982;2023-02-14T00:37:33;98435.44;;;0.87;83.86
47366;BME280;33105;47.964;7.982;2023-02-14T00:40:34;98432.34;;;0.74;84.85
47366;BME280;33105;47.964;7.982;2023-02-14T00:43:35;98425.47;;;0.79;84.58
47366;BME280;33105;47.964;7.982;2023-02-14T00:46:38;98418.91;;;0.82;84.56
47366;BME280;33105;47.964;7.982;2023-02-14T00:49:40;98419.97;;;0.89;83.77
47366;BME280;33105;47.964;7.982;2023-02-14T00:52:41;98420.59;;;0.83;83.88
47366;BME280;33105;47.964;7.982;2023-02-14T00:55:46;98423.94;;;0.77;84.28
47366;BME280;33105;47.964;7.982;2023-02-14T00:58:49;98415.53;;;0.80;84.21
47366;BME280;33105;47.964;7.982;2023-02-14T01:01:52;98425.75;;;1.02;82.75
47366;BME280;33105;47.964;7.982;2023-02-14T01:04:53;98424.78;;;1.11;82.24
47366;BME280;33105;47.964;7.982;2023-02-14T01:07:55;98415.72;;;1.12;82.54
47366;BME280;33105;47.964;7.982;2023-02-14T01:10:56;98418.56;;;1.11;81.80
47366;BME280;33105;47.964;7.982;2023-02-14T01:14:01;98421.09;;;1.12;81.52
47366;BME280;33105;47.964;7.982;2023-02-14T01:17:03;98423.09;;;1.10;82.54
47366;BME280;33105;47.964;7.982;2023-02-14T01:20:05;98421.19;;;0.94;82.51
47366;BME280;33105;47.964;7.982;2023-02-14T01:23:07;98424.19;;;0.91;82.44
47366;BME280;33105;47.964;7.982;2023-02-14T01:26:09;98417.66;;;0.94;82.69
47366;BME280;33105;47.964;7.982;2023-02-14T01:29:12;98419.97;;;0.89;82.38
47366;BME280;33105;47.964;7.982;2023-02-14T01:32:15;98413.38;;;0.83;82.42
47366;BME280;33105;47.964;7.982;2023-02-14T01:35:18;98420.28;;;0.86;82.40
47366;BME280;33105;47.964;7.982;2023-02-14T01:38:19;98412.28;;;1.02;81.90
47366;BME280;33105;47.964;7.982;2023-02-14T01:41:22;98414.66;;;1.05;81.99
47366;BME280;33105;47.964;7.982;2023-02-14T01:47:39;98413.28;;;0.93;81.70
47366;BME280;33105;47.964;7.982;2023-02-14T01:50:44;98417.66;;;0.94;81.46
47366;BME280;33105;47.964;7.982;2023-02-14T01:53:46;98415.44;;;0.89;81.75
47366;BME280;33105;47.964;7.982;2023-02-14T01:56:55;98413.59;;;0.90;81.18
47366;BME280;33105;47.964;7.982;2023-02-14T01:59:59;98411.22;;;0.87;81.33
47366;BME280;33105;47.964;7.982;2023-02-14T02:03:31;98410.69;;;0.83;81.13
47366;BME280;33105;47.964;7.982;2023-02-14T02:06:37;98408.22;;;0.90;80.92
47366;BME280;33105;47.964;7.982;2023-02-14T02:09:57;98412.97;;;1.04;79.98
47366;BME280;33105;47.964;7.982;2023-02-14T02:13:04;98410.09;;;0.97;80.00
47366;BME280;33105;47.964;7.982;2023-02-14T02:16:56;98401.66;;;0.92;80.44
47366;BME280;33105;47.964;7.982;2023-02-14T02:20:07;98404.56;;;0.99;79.47
47366;BME280;33105;47.964;7.982;2023-02-14T02:31:07;98390.69;;;1.20;78.20
47366;BME280;33105;47.964;7.982;2023-02-14T02:44:01;98362.50;;;0.98;78.87
47366;BME280;33105;47.964;7.982;2023-02-14T02:50:39;98361.53;;;1.07;78.15
47366;BME280;33105;47.964;7.982;2023-02-14T02:54:14;98365.84;;;0.92;79.12
47366;BME280;33105;47.964;7.982;2023-02-14T02:57:26;98360.09;;;0.87;79.43
47366;BME280;33105;47.964;7.982;2023-02-14T03:00:30;98363.78;;;0.86;78.93
47366;BME280;33105;47.964;7.982;2023-02-14T03:03:33;98361.09;;;0.86;78.78
47366;BME280;33105;47.964;7.982;2023-02-14T03:06:56;98369.88;;;0.88;79.09
47366;BME280;33105;47.964;7.982;2023-02-14T03:10:01;98365.47;;;0.87;78.33
47366;BME280;33105;47.964;7.982;2023-02-14T03:13:40;98361.84;;;0.96;77.16
47366;BME280;33105;47.964;7.982;2023-02-14T03:16:53;98357.63;;;0.93;78.10
47366;BME280;33105;47.964;7.982;2023-02-14T03:23:29;98361.22;;;0.76;78.66
47366;BME280;33105;47.964;7.982;2023-02-14T03:30:46;98365.59;;;0.43;78.91
47366;BME280;33105;47.964;7.982;2023-02-14T03:33:59;98367.00;;;0.29;80.17
47366;BME280;33105;47.964;7.982;2023-02-14T03:37:07;98367.28;;;0.18;80.55
47366;BME280;33105;47.964;7.982;2023-02-14T03:40:21;98355.31;;;0.13;81.00
47366;BME280;33105;47.964;7.982;2023-02-14T03:43:38;98362.00;;;0.09;81.27
47366;BME280;33105;47.964;7.982;2023-02-14T03:46:48;98357.41;;;0.01;81.32
47366;BME280;33105;47.964;7.982;2023-02-14T03:49:55;98355.13;;;-0.12;81.09
47366;BME280;33105;47.964;7.982;2023-02-14T03:52:59;98360.13;;;-0.17;80.78
47366;BME280;33105;47.964;7.982;2023-02-14T03:56:20;98364.88;;;-0.11;80.79
47366;BME280;33105;47.964;7.982;2023-02-14T03:59:24;98361.56;;;-0.05;80.81
47366;BME280;33105;47.964;7.982;2023-02-14T04:02:33;98361.41;;;-0.03;80.72
47366;BME280;33105;47.964;7.982;2023-02-14T04:05:37;98362.31;;;0.06;79.88
47366;BME280;33105;47.964;7.982;2023-02-14T04:08:44;98359.16;;;0.10;78.88
47366;BME280;33105;47.964;7.982;2023-02-14T04:11:46;98360.47;;;0.32;79.43
47366;BME280;33105;47.964;7.982;2023-02-14T04:14:52;98363.53;;;0.37;78.62
47366;BME280;33105;47.964;7.982;2023-02-14T04:17:54;98363.53;;;0.37;78.67
47366;BME280;33105;47.964;7.982;2023-02-14T04:21:14;98361.78;;;0.28;79.18
47366;BME280;33105;47.964;7.982;2023-02-14T04:24:18;98366.69;;;0.07;79.56
47366;BME280;33105;47.964;7.982;2023-02-14T04:27:20;98373.69;;;-0.01;80.95
47366;BME280;33105;47.964;7.982;2023-02-14T04:30:22;98373.94;;;-0.12;80.36
47366;BME280;33105;47.964;7.982;2023-02-14T04:33:23;98373.00;;;-0.20;81.98
47366;BME280;33105;47.964;7.982;2023-02-14T04:36:25;98384.00;;;-0.31;81.89
47366;BME280;33105;47.964;7.982;2023-02-14T04:39:27;98388.53;;;-0.50;82.03
47366;BME280;33105;47.964;7.982;2023-02-14T04:42:29;98382.94;;;-0.56;82.84
47366;BME280;33105;47.964;7.982;2023-02-14T04:45:30;98381.44;;;-0.69;83.40
47366;BME280;33105;47.964;7.982;2023-02-14T04:48:32;98384.66;;;-0.83;82.93
47366;BME280;33105;47.964;7.982;2023-02-14T04:51:34;98381.72;;;-0.89;83.97
47366;BME280;33105;47.964;7.982;2023-02-14T04:54:35;98391.06;;;-0.93;84.58
47366;BME280;33105;47.964;7.982;2023-02-14T04:57:37;98393.03;;;-0.95;84.26
47366;BME280;33105;47.964;7.982;2023-02-14T05:00:39;98378.09;;;-0.98;84.59
47366;BME280;33105;47.964;7.982;2023-02-14T05:03:40;98388.03;;;-1.35;85.34
47366;BME280;33105;47.964;7.982;2023-02-14T05:06:41;98381.66;;;-1.34;85.19
47366;BME280;33105;47.964;7.982;2023-02-14T05:09:42;98379.97;;;-1.35;85.39
47366;BME280;33105;47.964;7.982;2023-02-14T05:12:44;98380.97;;;-1.37;85.26
47366;BME280;33105;47.964;7.982;2023-02-14T05:15:45;98377.03;;;-1.42;85.43
47366;BME280;33105;47.964;7.982;2023-02-14T05:18:47;98380.84;;;-1.45;85.46
47366;BME280;33105;47.964;7.982;2023-02-14T05:21:50;98375.63;;;-1.46;86.72
47366;BME280;33105;47.964;7.982;2023-02-14T05:24:52;98385.06;;;-1.42;87.07
47366;BME280;33105;47.964;7.982;2023-02-14T05:27:54;98386.22;;;-1.45;86.39
47366;BME280;33105;47.964;7.982;2023-02-14T05:30:56;98382.41;;;-1.42;86.96
47366;BME280;33105;47.964;7.982;2023-02-14T05:33:58;98381.47;;;-1.51;86.78
47366;BME280;33105;47.964;7.982;2023-02-14T05:36:59;98386.41;;;-1.56;86.65
47366;BME280;33105;47.964;7.982;2023-02-14T05:40:04;98381.31;;;-1.49;87.02
47366;BME280;33105;47.964;7.982;2023-02-14T05:43:08;98377.41;;;-1.27;86.36
47366;BME280;33105;47.964;7.982;2023-02-14T05:46:09;98382.28;;;-1.13;85.44
47366;BME280;33105;47.964;7.982;2023-02-14T05:49:11;98383.78;;;-1.01;84.98
47366;BME280;33105;47.964;7.982;2023-02-14T05:52:13;98373.06;;;-1.01;84.94
47366;BME280;33105;47.964;7.982;2023-02-14T05:55:15;98382.38;;;-1.05;84.79
47366;BME280;33105;47.964;7.982;2023-02-14T05:58:17;98381.94;;;-1.28;84.64
47366;BME280;33105;47.964;7.982;2023-02-14T06:01:19;98388.31;;;-1.39;85.36
47366;BME280;33105;47.964;7.982;2023-02-14T06:04:20;98395.50;;;-1.39;85.98
47366;BME280;33105;47.964;7.982;2023-02-14T06:07:23;98402.28;;;-1.45;85.99
47366;BME280;33105;47.964;7.982;2023-02-14T06:10:24;98402.22;;;-1.62;85.88
47366;BME280;33105;47.964;7.982;2023-02-14T06:13:26;98397.00;;;-1.64;86.01
47366;BME280;33105;47.964;7.982;2023-02-14T06:16:29;98398.13;;;-1.66;86.73
47366;BME280;33105;47.964;7.982;2023-02-14T06:19:30;98402.94;;;-1.70;86.77
47366;BME280;33105;47.964;7.982;2023-02-14T06:22:32;98396.88;;;-1.72;87.17
47366;BME280;33105;47.964;7.982;2023-02-14T06:25:34;98398.75;;;-1.82;87.52
47366;BME280;33105;47.964;7.982;2023-02-14T06:28:36;98401.25;;;-1.71;87.29
47366;BME280;33105;47.964;7.982;2023-02-14T06:31:37;98407.50;;;-1.90;87.38
47366;BME280;33105;47.964;7.982;2023-02-14T06:34:39;98411.72;;;-1.78;87.23
47366;BME280;33105;47.964;7.982;2023-02-14T06:37:41;98414.41;;;-1.78;87.75
47366;BME280;33105;47.964;7.982;2023-02-14T06:40:42;98416.03;;;-1.67;87.26
47366;BME280;33105;47.964;7.982;2023-02-14T06:43:45;98414.25;;;-1.76;87.37
47366;BME280;33105;47.964;7.982;2023-02-14T06:46:50;98415.34;;;-1.69;87.30
47366;BME280;33105;47.964;7.982;2023-02-14T06:49:52;98418.63;;;-1.75;87.26
47366;BME280;33105;47.964;7.982;2023-02-14T06:52:53;98417.34;;;-1.81;87.41
47366;BME280;33105;47.964;7.982;2023-02-14T06:55:54;98427.78;;;-1.78;87.86
47366;BME280;33105;47.964;7.982;2023-02-14T06:58:56;98426.09;;;-1.79;86.69
47366;BME280;33105;47.964;7.982;2023-02-14T07:01:57;98414.97;;;-1.74;87.27
47366;BME280;33105;47.964;7.982;2023-02-14T07:04:59;98421.31;;;-1.85;86.89
47366;BME280;33105;47.964;7.982;2023-02-14T07:08:00;98418.50;;;-1.83;86.88
47366;BME280;33105;47.964;7.982;2023-02-14T07:11:01;98421.88;;;-1.81;87.22
47366;BME280;33105;47.964;7.982;2023-02-14T07:14:03;98420.19;;;-1.82;86.65
47366;BME280;33105;47.964;7.982;2023-02-14T07:17:05;98420.47;;;-1.76;87.83
47366;BME280;33105;47.964;7.982;2023-02-14T07:20:08;98425.06;;;-1.68;87.60
47366;BME280;33105;47.964;7.982;2023-02-14T07:23:10;98420.31;;;-1.74;87.07
47366;BME280;33105;47.964;7.982;2023-02-14T07:26:11;98412.81;;;-1.71;87.78
47366;BME280;33105;47.964;7.982;2023-02-14T07:29:18;98409.03;;;-1.87;87.60
47366;BME280;33105;47.964;7.982;2023-02-14T07:32:19;98411.97;;;-1.71;88.11
47366;BME280;33105;47.964;7.982;2023-02-14T07:35:21;98414.47;;;-1.60;87.52
47366;BME280;33105;47.964;7.982;2023-02-14T07:38:23;98400.94;;;-1.49;87.30
47366;BME280;33105;47.964;7.982;2023-02-14T07:41:26;98408.47;;;-1.34;86.38
47366;BME280;33105;47.964;7.982;2023-02-14T07:44:28;98403.41;;;-1.38;86.52
47366;BME280;33105;47.964;7.982;2023-02-14T07:47:29;98407.59;;;-1.25;86.17
47366;BME280;33105;47.964;7.982;2023-02-14T07:50:31;98407.00;;;-1.19;85.86
47366;BME280;33105;47.964;7.982;2023-02-14T07:53:32;98406.41;;;-1.13;85.18
47366;BME280;33105;47.964;7.982;2023-02-14T07:56:33;98412.13;;;-0.98;85.00
47366;BME280;33105;47.964;7.982;2023-02-14T07:59:34;98406.88;;;-0.73;83.39
47366;BME280;33105;47.964;7.982;2023-02-14T08:02:37;98397.78;;;-0.62;83.45
47366;BME280;33105;47.964;7.982;2023-02-14T08:05:40;98407.59;;;-0.71;82.86
47366;BME280;33105;47.964;7.982;2023-02-14T08:08:41;98410.50;;;-0.64;83.58
47366;BME280;33105;47.964;7.982;2023-02-14T08:11:43;98414.59;;;-0.60;84.15
47366;BME280;33105;47.964;7.982;2023-02-14T08:15:03;98403.56;;;-0.57;84.07
47366;BME280;33105;47.964;7.982;2023-02-14T08:18:23;98411.66;;;-0.49;83.54
47366;BME280;33105;47.964;7.982;2023-02-14T08:21:25;98403.84;;;-0.42;83.55
47366;BME280;33105;47.964;7.982;2023-02-14T08:24:27;98393.06;;;-0.32;83.84
47366;BME280;33105;47.964;7.982;2023-02-14T08:27:28;98396.97;;;-0.27;83.42
47366;BME280;33105;47.964;7.982;2023-02-14T08:30:30;98400.72;;;-0.20;82.83
47366;BME280;33105;47.964;7.982;2023-02-14T08:33:32;98399.72;;;-0.01;82.14
47366;BME280;33105;47.964;7.982;2023-02-14T08:36:33;98386.88;;;0.11;82.07
47366;BME280;33105;47.964;7.982;2023-02-14T08:39:35;98388.19;;;0.32;81.29
47366;BME280;33105;47.964;7.982;2023-02-14T08:42:38;98393.41;;;0.34;81.00
47366;BME280;33105;47.964;7.982;2023-02-14T08:45:40;98386.66;;;0.56;80.55
47366;BME280;33105;47.964;7.982;2023-02-14T08:48:42;98385.25;;;0.78;79.78
47366;BME280;33105;47.964;7.982;2023-02-14T08:51:44;98379.56;;;0.81;79.60
47366;BME280;33105;47.964;7.982;2023-02-14T08:54:46;98377.88;;;0.80;79.59
47366;BME280;33105;47.964;7.982;2023-02-14T08:57:49;98384.03;;;0.98;78.65
47366;BME280;33105;47.964;7.982;2023-02-14T09:00:50;98378.84;;;1.05;78.88
47366;BME280;33105;47.964;7.982;2023-02-14T09:03:51;98372.84;;;1.19;80.11
47366;BME280;33105;47.964;7.982;2023-02-14T09:06:52;98372.19;;;1.33;79.05
47366;BME280;33105;47.964;7.982;2023-02-14T09:09:54;98372.41;;;1.40;79.35
47366;BME280;33105;47.964;7.982;2023-02-14T09:12:55;98367.00;;;1.40;79.15
47366;BME280;33105;47.964;7.982;2023-02-14T09:15:56;98367.03;;;1.56;78.62
47366;BME280;33105;47.964;7.982;2023-02-14T09:18:57;98357.97;;;1.65;79.14
47366;BME280;33105;47.964;7.982;2023-02-14T09:21:59;98357.28;;;1.79;79.39
47366;BME280;33105;47.964;7.982;2023-02-14T09:25:00;98362.69;;;1.87;78.89
47366;BME280;33105;47.964;7.982;2023-02-14T09:28:01;98360.69;;;1.97;79.17
47366;BME280;33105;47.964;7.982;2023-02-14T09:31:14;98366.41;;;2.19;79.07
47366;BME280;33105;47.964;7.982;2023-02-14T09:34:16;98366.53;;;2.33;79.82
47366;BME280;33105;47.964;7.982;2023-02-14T09:37:18;98365.34;;;2.44;79.66
47366;BME280;33105;47.964;7.982;2023-02-14T09:40:38;98365.31;;;2.60;79.12
47366;BME280;33105;47.964;7.982;2023-02-14T09:43:52;98361.59;;;2.61;78.56
47366;BME280;33105;47.964;7.982;2023-02-14T09:46:58;98370.66;;;2.77;78.68
47366;BME280;33105;47.964;7.982;2023-02-14T09:50:03;98366.94;;;2.86;77.25
47366;BME280;33105;47.964;7.982;2023-02-14T09:53:28;98368.44;;;2.88;76.91
47366;BME280;33105;47.964;7.982;2023-02-14T09:56:38;98374.13;;;3.01;76.33
47366;BME280;33105;47.964;7.982;2023-02-14T10:03:20;98366.50;;;3.05;76.53
47366;BME280;33105;47.964;7.982;2023-02-14T10:10:16;98359.78;;;3.40;75.27
47366;BME280;33105;47.964;7.982;2023-02-14T10:13:29;98356.53;;;3.45;75.55
47366;BME280;33105;47.964;7.982;2023-02-14T10:16:43;98353.91;;;3.59;75.38
47366;BME280;33105;47.964;7.982;2023-02-14T10:19:53;98354.34;;;3.71;73.38
47366;BME280;33105;47.964;7.982;2023-02-14T10:23:04;98348.81;;;3.87;72.23
47366;BME280;33105;47.964;7.982;2023-02-14T10:26:10;98343.13;;;3.97;71.75
47366;BME280;33105;47.964;7.982;2023-02-14T10:29:17;98344.47;;;4.01;71.01
47366;BME280;33105;47.964;7.982;2023-02-14T10:32:26;98335.75;;;4.14;69.59
47366;BME280;33105;47.964;7.982;2023-02-14T10:35:59;98341.19;;;4.28;69.72
47366;BME280;33105;47.964;7.982;2023-02-14T10:39:02;98345.22;;;4.47;71.17
47366;BME280;33105;47.964;7.982;2023-02-14T10:45:38;98339.28;;;4.66;70.86
47366;BME280;33105;47.964;7.982;2023-02-14T10:49:02;98326.09;;;4.78;70.20
47366;BME280;33105;47.964;7.982;2023-02-14T10:55:39;98318.38;;;4.90;71.64
47366;BME280;33105;47.964;7.982;2023-02-14T10:58:44;98304.31;;;5.16;71.52
47366;BME280;33105;47.964;7.982;2023-02-14T11:01:48;98304.38;;;5.37;67.67
47366;BME280;33105;47.964;7.982;2023-02-14T11:04:52;98300.09;;;5.49;70.43
47366;BME280;33105;47.964;7.982;2023-02-14T11:07:54;98285.09;;;5.68;70.37
47366;BME280;33105;47.964;7.982;2023-02-14T11:14:32;98285.13;;;5.89;69.13
47366;BME280;33105;47.964;7.982;2023-02-14T11:17:37;98277.03;;;5.96;70.12
47366;BME280;33105;47.964;7.982;2023-02-14T11:20:39;98284.69;;;6.13;70.11
47366;BME280;33105;47.964;7.982;2023-02-14T11:23:46;98274.31;;;6.24;68.01
47366;BME280;33105;47.964;7.982;2023-02-14T11:26:49;98267.16;;;6.44;67.20
47366;BME280;33105;47.964;7.982;2023-02-14T11:29:54;98264.03;;;6.47;65.95
47366;BME280;33105;47.964;7.982;2023-02-14T11:32:56;98255.69;;;6.48;65.04
47366;BME280;33105;47.964;7.982;2023-02-14T11:35:59;98262.47;;;6.59;64.67
47366;BME280;33105;47.964;7.982;2023-02-14T11:42:33;98256.28;;;6.78;66.57
47366;BME280;33105;47.964;7.982;2023-02-14T11:45:38;98255.34;;;6.99;66.20
47366;BME280;33105;47.964;7.982;2023-02-14T11:49:04;98244.75;;;7.11;65.39
47366;BME280;33105;47.964;7.982;2023-02-14T11:52:09;98239.31;;;7.11;64.60
47366;BME280;33105;47.964;7.982;2023-02-14T11:55:25;98242.66;;;7.13;65.84
47366;BME280;33105;47.964;7.982;2023-02-14T11:58:38;98233.91;;;7.24;65.95
47366;BME280;33105;47.964;7.982;2023-02-14T12:05:18;98221.19;;;7.38;65.31
47366;BME280;33105;47.964;7.982;2023-02-14T12:08:25;98217.84;;;7.42;64.31
47366;BME280;33105;47.964;7.982;2023-02-14T12:11:28;98215.34;;;7.47;63.56
47366;BME280;33105;47.964;7.982;2023-02-14T12:14:34;98209.31;;;7.59;63.35
47366;BME280;33105;47.964;7.982;2023-02-14T12:17:36;98212.66;;;7.61;63.78
47366;BME280;33105;47.964;7.982;2023-02-14T12:30:24;98199.28;;;7.66;62.41
47366;BME280;33105;47.964;7.982;2023-02-14T12:33:25;98188.19;;;7.87;61.16
47366;BME280;33105;47.964;7.982;2023-02-14T12:43:02;98184.41;;;8.14;60.57
47366;BME280;33105;47.964;7.982;2023-02-14T12:46:20;98174.09;;;8.30;60.19
47366;BME280;33105;47.964;7.982;2023-02-14T12:49:34;98182.72;;;8.40;59.55
47366;BME280;33105;47.964;7.982;2023-02-14T12:56:06;98165.25;;;8.54;58.90
47366;BME280;33105;47.964;7.982;2023-02-14T13:09:39;98154.03;;;8.82;60.40
47366;BME280;33105;47.964;7.982;2023-02-14T13:12:48;98147.53;;;8.90;60.58
47366;BME280;33105;47.964;7.982;2023-02-14T13:22:27;98131.38;;;8.88;57.71
47366;BME280;33105;47.964;7.982;2023-02-14T13:25:35;98133.41;;;8.99;58.65
47366;BME280;33105;47.964;7.982;2023-02-14T13:28:49;98129.41;;;9.02;58.52
47366;BME280;33105;47.964;7.982;2023-02-14T13:31:57;98131.09;;;8.96;59.12
47366;BME280;33105;47.964;7.982;2023-02-14T13:35:01;98123.13;;;9.01;58.85
47366;BME280;33105;47.964;7.982;2023-02-14T13:38:06;98122.09;;;8.96;58.19
47366;BME280;33105;47.964;7.982;2023-02-14T13:41:09;98123.91;;;9.15;57.90
47366;BME280;33105;47.964;7.982;2023-02-14T13:44:48;98119.66;;;9.19;57.32
47366;BME280;33105;47.964;7.982;2023-02-14T13:48:03;98115.88;;;9.20;57.15
47366;BME280;33105;47.964;7.982;2023-02-14T13:51:07;98112.09;;;9.21;57.57
47366;BME280;33105;47.964;7.982;2023-02-14T13:57:31;98109.72;;;9.31;53.81
47366;BME280;33105;47.964;7.982;2023-02-14T14:00:37;98108.75;;;9.19;56.97
47366;BME280;33105;47.964;7.982;2023-02-14T14:10:09;98114.59;;;9.23;57.09
47366;BME280;33105;47.964;7.982;2023-02-14T14:16:55;98099.41;;;9.08;57.29
47366;BME280;33105;47.964;7.982;2023-02-14T14:19:57;98098.56;;;9.08;57.29
47366;BME280;33105;47.964;7.982;2023-02-14T14:22:59;98101.91;;;9.10;58.42
47366;BME280;33105;47.964;7.982;2023-02-14T14:26:01;98094.59;;;9.04;58.55
47366;BME280;33105;47.964;7.982;2023-02-14T14:29:10;98096.34;;;8.92;58.35
47366;BME280;33105;47.964;7.982;2023-02-14T14:32:28;98092.88;;;8.71;57.90
47366;BME280;33105;47.964;7.982;2023-02-14T14:35:30;98088.03;;;8.80;58.95
47366;BME280;33105;47.964;7.982;2023-02-14T14:38:32;98095.97;;;8.88;58.98
47366;BME280;33105;47.964;7.982;2023-02-14T14:41:34;98097.88;;;8.81;59.05
47366;BME280;33105;47.964;7.982;2023-02-14T14:44:36;98094.75;;;8.77;59.27
47366;BME280;33105;47.964;7.982;2023-02-14T14:47:45;98098.16;;;8.66;59.92
47366;BME280;33105;47.964;7.982;2023-02-14T14:50:47;98103.91;;;8.45;59.60
47366;BME280;33105;47.964;7.982;2023-02-14T14:53:57;98096.56;;;8.45;59.90
47366;BME280;33105;47.964;7.982;2023-02-14T14:56:59;98102.97;;;8.06;60.44
47366;BME280;33105;47.964;7.982;2023-02-14T15:00:18;98097.91;;;8.16;61.29
47366;BME280;33105;47.964;7.982;2023-02-14T15:03:22;98096.00;;;8.24;61.37
47366;BME280;33105;47.964;7.982;2023-02-14T15:06:25;98099.13;;;8.27;60.36
47366;BME280;33105;47.964;7.982;2023-02-14T15:09:32;98088.44;;;8.26;61.44
47366;BME280;33105;47.964;7.982;2023-02-14T15:12:36;98083.06;;;8.06;62.41
47366;BME280;33105;47.964;7.982;2023-02-14T15:15:56;98090.81;;;8.15;62.21
47366;BME280;33105;47.964;7.982;2023-02-14T15:22:42;98090.88;;;7.76;62.17
47366;BME280;33105;47.964;7.982;2023-02-14T15:25:46;98088.81;;;7.65;63.86
47366;BME280;33105;47.964;7.982;2023-02-14T15:29:00;98089.22;;;7.55;62.72
47366;BME280;33105;47.964;7.982;2023-02-14T15:32:02;98089.22;;;7.55;63.82
47366;BME280;33105;47.964;7.982;2023-02-14T15:35:05;98091.94;;;7.35;65.29
47366;BME280;33105;47.964;7.982;2023-02-14T15:38:09;98091.94;;;7.22;66.75
47366;BME280;33105;47.964;7.982;2023-02-14T15:41:12;98089.63;;;6.93;68.05
47366;BME280;33105;47.964;7.982;2023-02-14T15:44:22;98084.97;;;6.80;68.47
47366;BME280;33105;47.964;7.982;2023-02-14T15:47:23;98086.38;;;6.56;68.40
47366;BME280;33105;47.964;7.982;2023-02-14T15:50:28;98092.19;;;6.40;69.14
47366;BME280;33105;47.964;7.982;2023-02-14T15:53:43;98092.59;;;6.37;69.58
47366;BME280;33105;47.964;7.982;2023-02-14T15:56:46;98095.41;;;6.22;69.80
47366;BME280;33105;47.964;7.982;2023-02-14T15:59:49;98096.13;;;5.96;70.56
47366;BME280;33105;47.964;7.982;2023-02-14T16:02:57;98104.94;;;5.77;70.68
47366;BME280;33105;47.964;7.982;2023-02-14T16:06:00;98101.06;;;5.58;71.57
47366;BME280;33105;47.964;7.982;2023-02-14T16:09:04;98111.84;;;5.52;72.30
47366;BME280;33105;47.964;7.982;2023-02-14T16:12:29;98104.59;;;5.31;73.14
47366;BME280;33105;47.964;7.982;2023-02-14T16:15:38;98103.97;;;5.07;73.88
47366;BME280;33105;47.964;7.982;2023-02-14T16:18:50;98113.97;;;5.07;74.52
47366;BME280;33105;47.964;7.982;2023-02-14T16:21:55;98111.78;;;4.96;73.90
47366;BME280;33105;47.964;7.982;2023-02-14T16:25:00;98107.28;;;4.82;74.43
47366;BME280;33105;47.964;7.982;2023-02-14T16:28:01;98116.53;;;4.72;75.06
47366;BME280;33105;47.964;7.982;2023-02-14T16:31:04;98116.63;;;4.43;76.03
47366;BME280;33105;47.964;7.982;2023-02-14T16:34:13;98119.81;;;4.32;76.74
47366;BME280;33105;47.964;7.982;2023-02-14T16:37:31;98122.63;;;4.24;76.98
47366;BME280;33105;47.964;7.982;2023-02-14T16:40:33;98115.66;;;4.15;77.94
47366;BME280;33105;47.964;7.982;2023-02-14T16:43:35;98120.97;;;3.93;78.45
47366;BME280;33105;47.964;7.982;2023-02-14T16:46:36;98124.41;;;3.87;78.58
47366;BME280;33105;47.964;7.982;2023-02-14T16:49:37;98127.50;;;3.84;78.68
47366;BME280;33105;47.964;7.982;2023-02-14T16:52:39;98125.06;;;3.74;78.92
47366;BME280;33105;47.964;7.982;2023-02-14T16:55:41;98127.03;;;3.66;79.08
47366;BME280;33105;47.964;7.982;2023-02-14T16:58:42;98131.66;;;3.57;79.17
47366;BME280;33105;47.964;7.982;2023-02-14T17:01:43;98127.16;;;3.50;78.62
47366;BME280;33105;47.964;7.982;2023-02-14T17:04:45;98134.34;;;3.42;78.21
47366;BME280;33105;47.964;7.982;2023-02-14T17:07:46;98135.38;;;3.41;76.88
47366;BME280;33105;47.964;7.982;2023-02-14T17:10:47;98128.97;;;3.20;76.20
47366;BME280;33105;47.964;7.982;2023-02-14T17:13:49;98132.53;;;3.20;77.08
47366;BME280;33105;47.964;7.982;2023-02-14T17:16:51;98127.66;;;3.16;76.96
47366;BME280;33105;47.964;7.982;2023-02-14T17:19:54;98133.91;;;3.16;76.66
47366;BME280;33105;47.964;7.982;2023-02-14T17:22:55;98140.50;;;3.14;75.44
47366;BME280;33105;47.964;7.982;2023-02-14T17:25:58;98145.41;;;3.10;75.86
47366;BME280;33105;47.964;7.982;2023-02-14T17:28:59;98138.81;;;3.13;73.32
47366;BME280;33105;47.964;7.982;2023-02-14T17:32:00;98141.34;;;3.14;73.64
47366;BME280;33105;47.964;7.982;2023-02-14T17:35:02;98138.66;;;3.14;73.80
47366;BME280;33105;47.964;7.982;2023-02-14T17:38:05;98130.44;;;3.22;73.04
47366;BME280;33105;47.964;7.982;2023-02-14T17:41:30;98129.34;;;3.17;72.36
47366;BME280;33105;47.964;7.982;2023-02-14T17:44:31;98140.69;;;3.12;72.66
47366;BME280;33105;47.964;7.982;2023-02-14T17:47:36;98132.59;;;3.12;72.61
47366;BME280;33105;47.964;7.982;2023-02-14T17:50:37;98129.72;;;3.14;72.21
47366;BME280;33105;47.964;7.982;2023-02-14T17:53:38;98133.72;;;3.18;71.81
47366;BME280;33105;47.964;7.982;2023-02-14T17:56:41;98131.03;;;2.72;71.99
47366;BME280;33105;47.964;7.982;2023-02-14T17:59:42;98134.28;;;2.67;72.42
47366;BME280;33105;47.964;7.982;2023-02-14T18:02:45;98126.03;;;2.61;73.04
47366;BME280;33105;47.964;7.982;2023-02-14T18:05:46;98126.75;;;2.55;72.26
47366;BME280;33105;47.964;7.982;2023-02-14T18:08:49;98135.09;;;2.45;72.06
47366;BME280;33105;47.964;7.982;2023-02-14T18:11:52;98124.84;;;2.32;72.48
47366;BME280;33105;47.964;7.982;2023-02-14T18:14:53;98126.00;;;2.38;73.54
47366;BME280;33105;47.964;7.982;2023-02-14T18:17:56;98115.53;;;2.43;74.12
47366;BME280;33105;47.964;7.982;2023-02-14T18:20:59;98105.22;;;2.47;72.83